Time;durP1;ratioP1;P1;durP2;ratioP2;P2;SDS_P1;SDS_P2;PMS_P1;PMS_P2;Temp;Humidity;BMP_temperature;BMP_pressure;BME280_temperature;BME280_humidity;BME280_pressure;Samples;Min_cycle;Max_cycle;Signal;HPM_P1;HPM_P2
2023/04/21 00:00:55;;;;;;;1.05;1.00;;;;;;;14.13;51.20;99529.94;4432571;32;33305;-83
2023/04/21 00:03:25;;;;;;;0.60;0.60;;;;;;;14.14;50.92;99525.59;4438422;32;33812;-83
2023/04/21 00:05:57;;;;;;;0.70;0.70;;;;;;;14.08;51.11;99524.00;4435412;32;36150;-83
2023/04/21 00:08:26;;;;;;;1.83;1.55;;;;;;;14.01;51.09;99523.34;4432484;32;33571;-82
2023/04/21 00:10:55;;;;;;;0.70;0.70;;;;;;;14.00;50.84;99519.03;4433258;32;32660;-83
2023/04/21 00:13:23;;;;;;;0.60;0.60;;;;;;;13.95;50.59;99514.84;4445561;32;33717;-83
2023/04/21 00:15:54;;;;;;;0.62;0.62;;;;;;;14.15;50.40;99516.84;4451061;32;33750;-83
2023/04/21 00:18:24;;;;;;;0.70;0.62;;;;;;;14.14;50.42;99513.41;4440226;32;33443;-82
2023/04/21 00:20:53;;;;;;;0.98;0.90;;;;;;;14.01;50.26;99514.66;4445657;32;33140;-82
2023/04/21 00:23:22;;;;;;;1.50;0.80;;;;;;;13.98;50.57;99513.00;4440900;32;34277;-83
2023/04/21 00:25:51;;;;;;;0.70;0.70;;;;;;;13.86;50.77;99516.81;4435757;32;33901;-82
2023/04/21 00:28:20;;;;;;;1.92;0.93;;;;;;;13.57;51.49;99517.66;4432624;32;34306;-83
2023/04/21 00:30:49;;;;;;;0.70;0.70;;;;;;;13.65;51.67;99517.44;4434507;32;32995;-82
2023/04/21 00:33:19;;;;;;;1.25;0.80;;;;;;;13.56;52.04;99512.50;4433681;32;34194;-82
2023/04/21 00:35:48;;;;;;;1.10;1.00;;;;;;;13.51;52.21;99509.19;4430782;32;33467;-83
2023/04/21 00:38:17;;;;;;;0.80;0.80;;;;;;;13.46;52.41;99506.69;4435937;32;34317;-83
2023/04/21 00:40:46;;;;;;;0.68;0.68;;;;;;;13.34;52.75;99509.66;4428408;32;34580;-82
2023/04/21 00:43:15;;;;;;;1.30;1.20;;;;;;;13.27;52.75;99511.56;4430467;32;34673;-82
2023/04/21 00:45:45;;;;;;;2.20;2.00;;;;;;;13.30;52.51;99516.69;4438376;32;34821;-82
2023/04/21 00:48:14;;;;;;;0.82;0.82;;;;;;;13.19;52.86;99516.06;4438680;32;32967;-82
2023/04/21 00:50:45;;;;;;;0.77;0.70;;;;;;;13.19;52.66;99509.12;4431651;32;33219;-82
2023/04/21 00:53:14;;;;;;;0.70;0.70;;;;;;;13.09;53.13;99507.63;4434598;32;33611;-82
2023/04/21 00:55:45;;;;;;;0.80;0.80;;;;;;;12.98;53.12;99502.72;4440642;32;33826;-81
2023/04/21 00:58:14;;;;;;;1.00;0.90;;;;;;;12.72;54.07;99497.34;4432784;32;33883;-83
2023/04/21 01:00:43;;;;;;;1.52;1.10;;;;;;;12.99;52.83;99503.56;4443757;32;33141;-83
2023/04/21 01:03:12;;;;;;;1.00;0.90;;;;;;;12.90;53.28;99506.41;4439535;32;34498;-82
2023/04/21 01:05:42;;;;;;;0.80;0.80;;;;;;;12.97;52.81;99497.56;4432108;32;33789;-83
2023/04/21 01:08:14;;;;;;;0.97;0.97;;;;;;;12.98;53.19;99499.28;4438943;32;33261;-83
2023/04/21 01:10:43;;;;;;;1.85;1.15;;;;;;;12.88;53.38;99501.25;4443524;32;33919;-82
2023/04/21 01:13:13;;;;;;;0.68;0.68;;;;;;;12.90;52.78;99512.50;4445124;32;34645;-82
2023/04/21 01:15:45;;;;;;;1.80;1.70;;;;;;;13.10;52.04;99508.53;4444884;32;34505;-83
2023/04/21 01:18:14;;;;;;;0.80;0.80;;;;;;;13.12;52.16;99507.59;4435976;32;33523;-82
2023/04/21 01:20:44;;;;;;;0.65;0.65;;;;;;;12.97;52.38;99500.16;4446417;32;33274;-82
2023/04/21 01:23:17;;;;;;;1.10;0.90;;;;;;;13.01;51.82;99507.84;4450798;32;33008;-82
2023/04/21 01:25:46;;;;;;;0.70;0.70;;;;;;;12.87;52.85;99503.91;4439967;32;34962;-81
2023/04/21 01:28:14;;;;;;;2.70;2.15;;;;;;;12.92;52.53;99502.88;4430682;32;34439;-81
2023/04/21 01:30:43;;;;;;;0.60;0.60;;;;;;;12.94;52.27;99505.44;4431470;32;33731;-81
2023/04/21 01:33:12;;;;;;;0.88;0.88;;;;;;;12.86;52.51;99500.44;4435147;32;33806;-81
2023/04/21 01:35:41;;;;;;;0.80;0.80;;;;;;;12.66;53.13;99503.56;4429727;32;34410;-83
2023/04/21 01:38:10;;;;;;;0.70;0.70;;;;;;;12.60;53.47;99501.09;4443868;32;33480;-81
2023/04/21 01:40:41;;;;;;;1.30;1.12;;;;;;;12.82;52.62;99498.81;4429657;32;33718;-83
2023/04/21 01:43:10;;;;;;;0.70;0.70;;;;;;;12.81;52.52;99492.75;4433116;32;34365;-82
2023/04/21 01:45:41;;;;;;;0.90;0.90;;;;;;;12.64;52.98;99491.47;4444284;32;32636;-83
2023/04/21 01:48:10;;;;;;;0.85;0.85;;;;;;;12.71;52.79;99496.47;4434067;32;33643;-82
2023/04/21 01:50:40;;;;;;;0.93;0.80;;;;;;;12.63;52.56;99488.00;4435334;32;33415;-83
2023/04/21 01:53:10;;;;;;;0.80;0.80;;;;;;;12.64;52.81;99496.69;4430119;32;33457;-82
2023/04/21 01:55:40;;;;;;;2.10;1.40;;;;;;;12.71;52.33;99498.22;4438041;32;33862;-82
2023/04/21 01:58:09;;;;;;;0.98;0.95;;;;;;;12.84;52.13;99497.03;4435786;32;33191;-82
2023/04/21 02:00:38;;;;;;;1.62;1.23;;;;;;;12.68;52.71;99495.69;4432102;32;33696;-82
2023/04/21 02:03:10;;;;;;;0.80;0.80;;;;;;;12.71;52.34;99496.47;4428354;32;33930;-82
2023/04/21 02:05:39;;;;;;;0.73;0.73;;;;;;;12.81;51.83;99495.34;4433089;32;35145;-82
2023/04/21 02:08:08;;;;;;;1.23;0.88;;;;;;;12.73;52.20;99505.13;4437314;32;34898;-81
2023/04/21 02:10:37;;;;;;;1.50;0.90;;;;;;;12.71;52.37;99498.22;4427744;32;32877;-82
2023/04/21 02:13:07;;;;;;;0.77;0.77;;;;;;;12.55;52.79;99495.16;4427269;32;33748;-82
2023/04/21 02:15:37;;;;;;;0.68;0.68;;;;;;;12.53;52.87;99492.56;4430678;32;34379;-83
2023/04/21 02:18:07;;;;;;;0.70;0.70;;;;;;;12.69;52.19;99498.28;4433958;32;33877;-83
2023/04/21 02:20:37;;;;;;;0.70;0.70;;;;;;;12.57;52.46;99493.38;4441351;32;32935;-83
2023/04/21 02:23:07;;;;;;;0.80;0.80;;;;;;;12.55;52.74;99500.34;4428348;32;34728;-83
2023/04/21 02:25:36;;;;;;;0.70;0.70;;;;;;;12.55;52.94;99497.75;4432145;32;34621;-82
2023/04/21 02:28:07;;;;;;;0.82;0.80;;;;;;;12.50;52.91;99503.06;4434730;32;33963;-83
2023/04/21 02:30:36;;;;;;;1.20;1.10;;;;;;;12.47;52.80;99499.69;4428830;32;33770;-83
2023/04/21 02:33:04;;;;;;;2.37;1.20;;;;;;;12.53;52.60;99505.59;4429633;32;33897;-81
2023/04/21 02:35:33;;;;;;;0.70;0.70;;;;;;;12.47;52.52;99500.53;4430706;32;34785;-82
2023/04/21 02:38:06;;;;;;;1.00;1.00;;;;;;;12.37;52.99;99499.91;4431074;32;33792;-82
2023/04/21 02:40:35;;;;;;;0.80;0.80;;;;;;;12.51;52.74;99496.94;4436566;32;33985;-82
2023/04/21 02:43:04;;;;;;;0.70;0.70;;;;;;;12.38;52.55;99501.59;4430894;32;33555;-83
2023/04/21 02:45:34;;;;;;;1.25;1.15;;;;;;;12.48;52.36;99499.63;4430670;32;33752;-83
2023/04/21 02:48:03;;;;;;;1.00;0.90;;;;;;;12.26;52.82;99498.44;4430579;32;33976;-82
2023/04/21 02:50:32;;;;;;;0.80;0.80;;;;;;;12.51;50.85;99503.91;4436093;32;33214;-83
2023/04/21 02:53:03;;;;;;;1.67;1.55;;;;;;;12.37;51.08;99502.50;4430876;32;33691;-82
2023/04/21 02:55:32;;;;;;;0.75;0.75;;;;;;;12.43;51.16;99498.91;4439399;32;33746;-83
2023/04/21 02:58:01;;;;;;;1.40;1.00;;;;;;;12.67;49.35;99494.84;4446129;32;34330;-82
2023/04/21 03:00:29;;;;;;;2.97;2.70;;;;;;;12.43;51.18;99498.91;4446254;32;33212;-81
2023/04/21 03:03:00;;;;;;;1.42;1.33;;;;;;;12.46;51.62;99500.56;4451715;32;33844;-82
2023/04/21 03:05:29;;;;;;;2.05;1.80;;;;;;;12.50;51.83;99504.81;4446671;32;34032;-83
2023/04/21 03:07:58;;;;;;;0.70;0.70;;;;;;;12.53;51.81;99502.97;4445542;32;34344;-82
2023/04/21 03:10:26;;;;;;;1.50;1.20;;;;;;;12.42;51.39;99499.81;4446407;32;34119;-83
2023/04/21 03:12:56;;;;;;;0.62;0.62;;;;;;;12.28;51.79;99518.31;4451687;32;34459;-81
2023/04/21 03:15:25;;;;;;;0.70;0.70;;;;;;;12.42;50.58;99505.00;4445383;32;34174;-82
2023/04/21 03:17:54;;;;;;;1.10;1.00;;;;;;;12.33;50.55;99506.06;4434447;32;34688;-82
2023/04/21 03:20:25;;;;;;;0.60;0.60;;;;;;;12.43;50.41;99498.03;4430804;32;33974;-82
2023/04/21 03:22:54;;;;;;;0.80;0.80;;;;;;;12.40;50.91;99500.72;4431754;32;32970;-81
2023/04/21 03:25:24;;;;;;;1.10;1.00;;;;;;;12.50;50.75;99494.41;4444673;32;33778;-81
2023/04/21 03:27:52;;;;;;;0.73;0.73;;;;;;;12.41;49.77;99499.81;4446033;32;33860;-82
2023/04/21 03:30:22;;;;;;;1.17;1.10;;;;;;;12.47;50.30;99497.94;4441384;32;33172;-83
2023/04/21 03:32:51;;;;;;;0.90;0.90;;;;;;;12.41;50.10;99505.87;4432944;32;34648;-81
2023/04/21 03:35:23;;;;;;;1.60;0.90;;;;;;;12.43;49.94;99500.66;4446751;32;34651;-81
2023/04/21 03:37:53;;;;;;;0.90;0.88;;;;;;;12.44;50.19;99502.34;4444502;32;33893;-81
2023/04/21 03:40:22;;;;;;;0.80;0.80;;;;;;;12.54;49.60;99509.03;4430246;32;33921;-83
2023/04/21 03:42:51;;;;;;;0.70;0.70;;;;;;;12.57;49.74;99499.41;4435997;32;34482;-81
2023/04/21 03:45:21;;;;;;;0.80;0.80;;;;;;;12.75;49.21;99511.13;4445830;32;34579;-82
2023/04/21 03:47:53;;;;;;;0.93;0.90;;;;;;;12.42;50.49;99514.53;4450662;32;34368;-83
2023/04/21 03:50:22;;;;;;;0.80;0.80;;;;;;;12.53;49.91;99509.94;4441431;32;32940;-81
2023/04/21 03:52:52;;;;;;;0.70;0.70;;;;;;;12.60;49.99;99508.91;4444977;32;34331;-83
2023/04/21 03:55:21;;;;;;;1.37;1.27;;;;;;;12.42;50.15;99515.41;4436342;32;33274;-82
2023/04/21 03:57:50;;;;;;;2.28;0.80;;;;;;;12.37;49.46;99517.22;4443330;32;34076;-83
2023/04/21 04:00:19;;;;;;;0.80;0.80;;;;;;;12.47;48.61;99512.69;4432802;32;34053;-82
2023/04/21 04:02:49;;;;;;;0.77;0.77;;;;;;;12.62;46.54;99517.53;4437465;32;34604;-83
2023/04/21 04:05:17;;;;;;;1.58;1.35;;;;;;;12.53;48.00;99517.75;4433745;32;33947;-82
2023/04/21 04:07:46;;;;;;;0.70;0.70;;;;;;;12.65;47.33;99520.03;4435609;32;33929;-83
2023/04/21 04:10:17;;;;;;;0.60;0.60;;;;;;;12.26;48.75;99525.31;4432229;32;33410;-82
2023/04/21 04:12:45;;;;;;;0.70;0.70;;;;;;;11.84;48.69;99525.31;4435935;32;32733;-81
2023/04/21 04:15:15;;;;;;;0.80;0.80;;;;;;;12.41;47.22;99523.25;4433418;32;34142;-81
2023/04/21 04:17:43;;;;;;;0.62;0.62;;;;;;;12.80;46.50;99527.47;4440975;32;33786;-82
2023/04/21 04:20:12;;;;;;;1.77;1.67;;;;;;;12.82;46.88;99530.88;4439330;32;33051;-82
2023/04/21 04:22:41;;;;;;;1.30;1.15;;;;;;;13.20;46.06;99541.25;4441730;32;34044;-82
2023/04/21 04:25:11;;;;;;;2.10;2.00;;;;;;;13.00;46.41;99540.00;4433538;32;34458;-83
2023/04/21 04:27:43;;;;;;;0.98;0.95;;;;;;;13.19;45.82;99535.19;4439034;32;33923;-80
2023/04/21 04:30:13;;;;;;;0.88;0.88;;;;;;;13.41;46.37;99539.84;4442732;32;33433;-80
2023/04/21 04:32:41;;;;;;;0.85;0.85;;;;;;;13.74;45.79;99543.25;4430519;32;33693;-81
2023/04/21 04:35:11;;;;;;;0.70;0.70;;;;;;;13.76;46.13;99543.22;4441035;32;33291;-80
2023/04/21 04:37:41;;;;;;;0.80;0.80;;;;;;;13.72;46.34;99542.44;4432376;32;33621;-81
2023/04/21 04:40:10;;;;;;;1.50;0.80;;;;;;;13.79;46.69;99551.78;4430497;32;33024;-81
2023/04/21 04:42:39;;;;;;;1.90;1.80;;;;;;;13.80;46.85;99550.91;4435870;32;34302;-81
2023/04/21 04:45:10;;;;;;;2.05;1.83;;;;;;;13.91;46.16;99555.81;4430620;32;33561;-80
2023/04/21 04:47:39;;;;;;;0.70;0.70;;;;;;;14.05;45.97;99558.00;4431603;32;34391;-80
2023/04/21 04:50:08;;;;;;;2.33;0.80;;;;;;;14.22;45.92;99549.69;4431874;32;33094;-81
2023/04/21 04:52:37;;;;;;;0.80;0.80;;;;;;;14.18;45.77;99554.16;4437724;32;33569;-81
2023/04/21 04:55:08;;;;;;;2.37;0.70;;;;;;;14.47;45.49;99544.56;4445623;32;33800;-80
2023/04/21 04:57:37;;;;;;;0.70;0.70;;;;;;;14.52;45.48;99553.97;4445103;32;34010;-80
2023/04/21 05:00:10;;;;;;;0.95;0.88;;;;;;;14.59;44.66;99538.13;4445688;32;33934;-80
2023/04/21 05:02:40;;;;;;;1.17;1.02;;;;;;;14.74;43.62;99537.66;4433566;32;34390;-81
2023/04/21 05:05:09;;;;;;;0.88;0.80;;;;;;;15.23;41.54;99543.81;4433679;32;34529;-80
2023/04/21 05:07:39;;;;;;;0.62;0.62;;;;;;;15.65;40.78;99539.75;4433429;32;34348;-82
2023/04/21 05:10:08;;;;;;;1.05;1.05;;;;;;;15.85;40.55;99547.75;4438621;32;33702;-81
2023/04/21 05:12:37;;;;;;;1.25;1.20;;;;;;;16.38;39.50;99541.34;4444351;32;34519;-81
2023/04/21 05:15:07;;;;;;;0.62;0.57;;;;;;;17.46;38.09;99549.13;4448334;32;33776;-81
2023/04/21 05:17:35;;;;;;;1.20;0.73;;;;;;;18.03;37.40;99538.75;4437695;32;35043;-81
2023/04/21 05:20:07;;;;;;;0.50;0.50;;;;;;;18.84;35.46;99535.78;4444701;32;34301;-81
2023/04/21 05:22:37;;;;;;;2.47;1.85;;;;;;;19.42;33.89;99545.97;4459804;32;33584;-81
2023/04/21 05:25:06;;;;;;;1.62;1.25;;;;;;;20.00;32.22;99535.00;4444987;32;33881;-82
2023/04/21 05:27:35;;;;;;;0.55;0.55;;;;;;;19.99;31.50;99543.00;4434786;32;33760;-82
2023/04/21 05:30:04;;;;;;;0.80;0.73;;;;;;;18.98;32.91;99543.84;4429821;32;33065;-80
2023/04/21 05:32:33;;;;;;;0.43;0.43;;;;;;;18.40;33.26;99544.03;4440119;32;33368;-82
2023/04/21 05:35:03;;;;;;;0.60;0.60;;;;;;;16.80;36.37;99553.69;4443927;32;34668;-81
2023/04/21 05:37:33;;;;;;;0.70;0.70;;;;;;;17.66;34.12;99547.38;4438625;32;34350;-82
2023/04/21 05:40:02;;;;;;;2.12;0.90;;;;;;;17.63;34.54;99545.75;4440567;32;32700;-82
2023/04/21 05:42:31;;;;;;;0.50;0.50;;;;;;;17.43;35.00;99551.87;4428931;32;34222;-81
2023/04/21 05:45:00;;;;;;;0.50;0.50;;;;;;;16.80;35.58;99551.91;4431195;32;33882;-81
2023/04/21 05:47:29;;;;;;;1.98;0.73;;;;;;;17.23;35.21;99557.16;4437186;32;33382;-81
2023/04/21 05:49:58;;;;;;;1.95;1.60;;;;;;;17.28;35.11;99557.81;4429715;32;34465;-82
2023/04/21 05:52:27;;;;;;;0.93;0.93;;;;;;;16.95;36.15;99560.91;4428920;32;34525;-82
2023/04/21 05:54:58;;;;;;;0.98;0.93;;;;;;;16.83;36.59;99557.03;4428352;32;34664;-82
2023/04/21 05:57:27;;;;;;;0.40;0.40;;;;;;;16.07;37.40;99562.62;4429054;32;33811;-81
2023/04/21 05:59:55;;;;;;;0.70;0.70;;;;;;;15.72;38.49;99555.19;4434969;32;34714;-81
2023/04/21 06:02:24;;;;;;;0.60;0.60;;;;;;;15.38;38.84;99559.87;4427679;32;33581;-80
2023/04/21 06:04:53;;;;;;;0.50;0.50;;;;;;;15.68;38.28;99560.53;4430752;32;34915;-81
2023/04/21 06:07:22;;;;;;;0.52;0.52;;;;;;;15.50;38.98;99568.13;4439309;32;33471;-81
2023/04/21 06:09:51;;;;;;;0.68;0.68;;;;;;;14.98;39.58;99563.84;4450271;32;33298;-81
2023/04/21 06:12:22;;;;;;;0.70;0.70;;;;;;;15.66;39.12;99567.63;4437971;32;33856;-81
2023/04/21 06:14:50;;;;;;;2.37;1.30;;;;;;;15.27;39.65;99557.63;4441703;32;36111;-81
2023/04/21 06:17:19;;;;;;;0.73;0.73;;;;;;;14.99;40.15;99566.41;4444860;32;33666;-81
2023/04/21 06:19:51;;;;;;;0.80;0.70;;;;;;;14.87;40.33;99562.44;4439541;32;33174;-81
2023/04/21 06:22:21;;;;;;;0.50;0.50;;;;;;;14.75;41.05;99559.37;4442837;32;33680;-82
2023/04/21 06:24:50;;;;;;;0.60;0.60;;;;;;;14.73;41.44;99560.28;4435804;32;33621;-81
2023/04/21 06:27:18;;;;;;;0.50;0.50;;;;;;;14.94;41.10;99570.94;4446120;32;33392;-80
2023/04/21 06:29:48;;;;;;;1.65;1.52;;;;;;;14.78;41.00;99557.50;4445881;32;33408;-80
2023/04/21 06:32:17;;;;;;;0.80;0.80;;;;;;;14.66;41.06;99561.38;4450670;32;33795;-81
2023/04/21 06:34:46;;;;;;;0.50;0.50;;;;;;;14.68;41.24;99563.94;4434226;32;33783;-82
2023/04/21 06:37:15;;;;;;;0.73;0.70;;;;;;;15.02;40.38;99565.44;4430588;32;33870;-82
2023/04/21 06:39:44;;;;;;;1.75;1.52;;;;;;;15.11;40.19;99560.78;4443227;32;34082;-81
2023/04/21 06:42:13;;;;;;;0.60;0.60;;;;;;;14.99;40.38;99563.81;4448606;32;33733;-82
2023/04/21 06:44:42;;;;;;;0.95;0.95;;;;;;;14.57;40.87;99563.41;4444263;32;33572;-81
2023/04/21 06:47:13;;;;;;;1.27;1.17;;;;;;;14.88;40.72;99564.16;4446278;32;33594;-82
2023/04/21 06:49:41;;;;;;;0.62;0.62;;;;;;;15.18;40.33;99560.56;4445952;32;32138;-81
2023/04/21 06:52:10;;;;;;;1.05;0.95;;;;;;;15.34;39.95;99567.84;4446347;32;33496;-82
2023/04/21 06:54:39;;;;;;;0.85;0.77;;;;;;;15.64;39.41;99559.81;4435811;32;34204;-80
2023/04/21 06:57:08;;;;;;;0.60;0.60;;;;;;;15.43;40.44;99561.41;4430380;32;34370;-80
2023/04/21 06:59:36;;;;;;;0.98;0.98;;;;;;;15.38;39.62;99559.87;4430660;32;34117;-81
2023/04/21 07:02:06;;;;;;;1.20;1.10;;;;;;;15.46;40.11;99555.22;4430828;32;33639;-80
2023/04/21 07:04:36;;;;;;;1.30;0.70;;;;;;;16.15;39.72;99550.97;4436102;32;33942;-81
2023/04/21 07:07:04;;;;;;;1.42;0.90;;;;;;;16.01;38.85;99553.25;4430067;32;34365;-82
2023/04/21 07:09:33;;;;;;;1.90;1.60;;;;;;;15.61;38.01;99548.59;4430566;32;32938;-82
2023/04/21 07:12:02;;;;;;;0.60;0.60;;;;;;;15.36;39.79;99552.94;4439729;32;33390;-80
2023/04/21 07:14:31;;;;;;;1.73;0.70;;;;;;;15.33;39.69;99549.59;4446078;32;34594;-81
2023/04/21 07:17:00;;;;;;;0.77;0.70;;;;;;;15.28;39.76;99557.59;4448741;32;34307;-81
2023/04/21 07:19:29;;;;;;;1.15;1.05;;;;;;;14.93;40.06;99551.81;4440587;32;33196;-80
2023/04/21 07:22:02;;;;;;;1.00;0.70;;;;;;;15.26;39.64;99559.37;4439597;32;33875;-81
2023/04/21 07:24:33;;;;;;;0.62;0.62;;;;;;;15.77;38.79;99548.00;4430255;32;33464;-80
2023/04/21 07:27:04;;;;;;;0.85;0.50;;;;;;;16.07;39.01;99546.91;4437286;32;33599;-80
2023/04/21 07:29:33;;;;;;;0.57;0.57;;;;;;;15.63;39.22;99555.47;4437196;32;32955;-79
2023/04/21 07:32:02;;;;;;;0.55;0.55;;;;;;;15.85;38.67;99559.94;4445964;32;33534;-80
2023/04/21 07:34:31;;;;;;;0.70;0.70;;;;;;;16.27;38.13;99549.63;4438449;32;33959;-81
2023/04/21 07:37:00;;;;;;;0.50;0.50;;;;;;;15.86;38.39;99553.84;4430356;32;35219;-81
2023/04/21 07:39:30;;;;;;;0.70;0.70;;;;;;;15.49;39.32;99550.75;4436068;32;33383;-79
2023/04/21 07:41:58;;;;;;;0.62;0.62;;;;;;;15.83;39.49;99560.03;4430357;32;33774;-81
2023/04/21 07:44:28;;;;;;;1.15;0.95;;;;;;;16.08;39.32;99554.72;4430226;32;33608;-79
2023/04/21 07:46:57;;;;;;;0.50;0.50;;;;;;;16.37;39.17;99558.84;4431922;32;33842;-81
2023/04/21 07:49:25;;;;;;;0.70;0.60;;;;;;;15.88;38.68;99549.41;4459652;32;33594;-80
2023/04/21 07:51:54;;;;;;;0.50;0.50;;;;;;;16.57;38.28;99557.19;4430011;32;33924;-82
2023/04/21 07:54:23;;;;;;;0.43;0.43;;;;;;;16.36;38.97;99551.91;4429908;32;33639;-81
2023/04/21 07:56:53;;;;;;;1.10;0.80;;;;;;;16.35;37.98;99549.34;4430320;32;34136;-80
2023/04/21 07:59:22;;;;;;;0.68;0.68;;;;;;;15.93;38.35;99555.31;4432584;32;33451;-80
2023/04/21 08:01:51;;;;;;;1.45;1.27;;;;;;;16.20;39.02;99551.63;4435356;32;33483;-81
2023/04/21 08:04:20;;;;;;;0.50;0.50;;;;;;;16.76;37.53;99558.16;4430315;32;33950;-80
2023/04/21 08:06:50;;;;;;;0.95;0.75;;;;;;;16.73;37.72;99557.44;4428992;32;33953;-80
2023/04/21 08:09:19;;;;;;;1.20;1.02;;;;;;;16.63;37.48;99554.34;4437134;32;33546;-81
2023/04/21 08:11:48;;;;;;;1.48;1.25;;;;;;;16.48;38.37;99565.41;4451099;32;33085;-79
2023/04/21 08:14:18;;;;;;;0.65;0.50;;;;;;;16.89;37.88;99558.56;4444994;32;33780;-80
2023/04/21 08:16:47;;;;;;;0.93;0.85;;;;;;;16.72;37.25;99566.19;4445960;32;33988;-81
2023/04/21 08:19:16;;;;;;;0.55;0.55;;;;;;;16.52;37.06;99557.38;4444925;32;33291;-81
2023/04/21 08:21:45;;;;;;;0.57;0.57;;;;;;;16.78;36.67;99558.97;4451151;32;33803;-80
2023/04/21 08:24:14;;;;;;;0.60;0.60;;;;;;;16.63;37.50;99551.72;4445544;32;33946;-79
2023/04/21 08:26:43;;;;;;;0.73;0.60;;;;;;;16.74;37.11;99556.50;4445873;32;34124;-81
2023/04/21 08:29:12;;;;;;;2.30;0.88;;;;;;;16.69;37.64;99558.47;4444227;32;33354;-81
2023/04/21 08:31:43;;;;;;;0.40;0.40;;;;;;;16.68;37.52;99555.00;4445330;32;33727;-80
2023/04/21 08:34:12;;;;;;;0.60;0.60;;;;;;;17.04;36.88;99555.28;4449792;32;33901;-80
2023/04/21 08:36:41;;;;;;;0.40;0.40;;;;;;;16.87;36.99;99555.16;4444934;32;34398;-81
2023/04/21 08:39:10;;;;;;;0.90;0.90;;;;;;;17.43;36.51;99558.91;4436649;32;33310;-81
2023/04/21 08:41:40;;;;;;;0.50;0.50;;;;;;;17.68;35.34;99556.03;4438666;32;34120;-81
2023/04/21 08:44:10;;;;;;;1.10;1.00;;;;;;;17.51;35.90;99550.69;4446018;32;33834;-81
2023/04/21 08:46:40;;;;;;;0.98;0.60;;;;;;;17.81;34.78;99548.53;4441257;32;34311;-79
2023/04/21 08:49:10;;;;;;;0.75;0.70;;;;;;;17.99;33.90;99549.44;4442739;32;32870;-81
2023/04/21 08:51:39;;;;;;;0.40;0.40;;;;;;;17.44;35.13;99550.94;4442958;32;34564;-80
2023/04/21 08:54:08;;;;;;;0.50;0.50;;;;;;;17.46;34.41;99546.50;4440102;32;33615;-80
2023/04/21 08:56:42;;;;;;;0.45;0.45;;;;;;;17.98;33.63;99550.38;4446769;32;34111;-80
2023/04/21 08:59:10;;;;;;;0.75;0.40;;;;;;;18.33;33.25;99546.94;4441457;32;33843;-81
2023/04/21 09:02:11;;;;;;;0.50;0.50;;;;;;;17.98;35.26;99548.59;4442894;32;33841;-79
2023/04/21 09:04:42;;;;;;;;;;;;;;;18.09;34.97;99537.59;4443399;32;35438;-81
2023/04/21 09:07:30;;;;;;;0.50;0.50;;;;;;;18.08;35.26;99533.28;4442953;32;34839;-80
2023/04/21 09:10:02;;;;;;;0.88;0.77;;;;;;;18.24;33.04;99543.91;4448593;32;33157;-80
2023/04/21 09:12:31;;;;;;;0.85;0.85;;;;;;;17.84;33.94;99545.75;4441877;32;33442;-81
2023/04/21 09:15:00;;;;;;;1.40;0.70;;;;;;;17.77;33.19;99544.28;4443758;32;34239;-81
2023/04/21 09:17:31;;;;;;;0.50;0.50;;;;;;;18.02;33.56;99544.91;4427739;32;32954;-82
2023/04/21 09:20:14;;;;;;;1.42;1.20;;;;;;;18.23;33.48;99532.53;4443076;32;32570;-80
2023/04/21 09:22:43;;;;;;;0.30;0.30;;;;;;;18.32;33.57;99540.00;4447607;32;33773;-81
2023/04/21 09:25:16;;;;;;;0.88;0.60;;;;;;;18.29;32.84;99542.78;4442880;32;34880;-80
2023/04/21 09:27:45;;;;;;;0.80;0.70;;;;;;;18.14;33.45;99535.59;4442764;32;33768;-79
2023/04/21 09:30:18;;;;;;;0.50;0.50;;;;;;;18.55;34.10;99538.88;4440520;32;33880;-80
2023/04/21 09:32:47;;;;;;;0.62;0.62;;;;;;;18.54;33.34;99536.34;4441437;32;33597;-81
2023/04/21 09:35:18;;;;;;;1.00;0.95;;;;;;;18.45;32.60;99528.91;4448545;32;34308;-82
2023/04/21 09:37:46;;;;;;;0.50;0.47;;;;;;;18.45;33.22;99521.87;4442433;32;33343;-80
2023/04/21 09:40:18;;;;;;;1.02;0.90;;;;;;;18.92;32.39;99525.75;4443581;32;32551;-81
2023/04/21 09:42:49;;;;;;;1.00;0.75;;;;;;;19.11;32.24;99521.28;4442882;32;34140;-81
2023/04/21 09:45:18;;;;;;;1.42;0.55;;;;;;;19.24;32.46;99524.12;4450266;32;33931;-82
2023/04/21 09:47:51;;;;;;;0.60;0.60;;;;;;;18.85;32.14;99516.47;4444685;32;32692;-81
2023/04/21 09:50:22;;;;;;;1.33;1.00;;;;;;;19.43;31.93;99510.03;4444098;32;33266;-80
2023/04/21 09:53:15;;;;;;;1.12;0.80;;;;;;;18.47;32.38;99508.66;4440739;32;34048;-81
2023/04/21 09:55:46;;;;;;;1.20;1.10;;;;;;;18.15;32.74;99524.19;4443827;32;33609;-81
2023/04/21 09:58:16;;;;;;;1.37;1.00;;;;;;;18.82;31.98;99508.72;4446195;32;33404;-81
2023/04/21 10:00:45;;;;;;;0.90;0.52;;;;;;;19.17;31.13;99509.59;4443091;32;34235;-82
2023/04/21 10:03:14;;;;;;;1.10;0.88;;;;;;;19.50;31.49;99506.09;4443391;32;32245;-81
2023/04/21 10:05:45;;;;;;;1.45;0.77;;;;;;;19.60;31.16;99500.28;4443468;32;33488;-80
2023/04/21 10:08:15;;;;;;;0.50;0.50;;;;;;;19.45;31.04;99503.75;4446944;32;34091;-82
2023/04/21 10:10:45;;;;;;;0.40;0.40;;;;;;;19.23;32.09;99505.78;4448384;32;32947;-82
2023/04/21 10:13:18;;;;;;;0.98;0.80;;;;;;;19.11;31.35;99499.38;4442461;32;32617;-80
2023/04/21 10:15:47;;;;;;;1.23;1.12;;;;;;;19.05;31.89;99512.84;4443153;32;33620;-81
2023/04/21 10:18:18;;;;;;;0.93;0.62;;;;;;;19.23;31.17;99495.25;4438955;32;35096;-82
2023/04/21 10:20:58;;;;;;;1.08;0.93;;;;;;;19.35;32.11;99498.13;4447053;32;33851;-80
2023/04/21 10:23:31;;;;;;;1.23;1.00;;;;;;;19.77;30.93;99498.56;4445834;32;34815;-82
2023/04/21 10:26:06;;;;;;;0.40;0.40;;;;;;;20.09;30.77;99494.16;4441765;32;34070;-81
2023/04/21 10:28:47;;;;;;;0.62;0.55;;;;;;;20.51;31.77;99489.19;4442625;32;33500;-80
2023/04/21 10:31:31;;;;;;;0.77;0.73;;;;;;;20.60;31.21;99489.53;4442738;32;33408;-81
2023/04/21 10:34:17;;;;;;;0.95;0.60;;;;;;;20.91;32.02;99493.03;4443945;32;33621;-80
2023/04/21 10:37:06;;;;;;;0.68;0.57;;;;;;;20.35;30.42;99490.06;4449530;32;34532;-82
2023/04/21 10:39:42;;;;;;;1.00;0.80;;;;;;;20.74;29.55;99487.91;4449329;32;34300;-81
2023/04/21 10:42:26;;;;;;;2.28;1.23;;;;;;;20.81;28.46;99482.16;4444039;32;34188;-81
2023/04/21 10:45:12;;;;;;;0.88;0.62;;;;;;;20.84;28.76;99471.44;4444014;32;34026;-81
2023/04/21 10:47:47;;;;;;;0.68;0.68;;;;;;;20.87;29.29;99476.53;4443638;32;33572;-81
2023/04/21 10:50:22;;;;;;;0.57;0.57;;;;;;;19.78;31.42;99468.66;4444300;32;34202;-81
2023/04/21 10:52:58;;;;;;;1.33;0.70;;;;;;;20.38;29.73;99468.81;4446522;32;33022;-82
2023/04/21 10:55:29;;;;;;;0.62;0.62;;;;;;;20.25;29.42;99463.41;4442928;32;35238;-80
2023/04/21 10:58:02;;;;;;;9.13;0.77;;;;;;;20.53;29.19;99463.59;4442956;32;33612;-80
2023/04/21 11:00:33;;;;;;;0.70;0.60;;;;;;;20.55;29.70;99459.97;4440841;32;33618;-80
2023/04/21 11:03:03;;;;;;;1.48;0.70;;;;;;;21.10;28.75;99466.41;4439945;32;32985;-82
2023/04/21 11:05:37;;;;;;;0.73;0.73;;;;;;;20.93;28.15;99466.56;4447841;32;34265;-82
2023/04/21 11:08:14;;;;;;;0.70;0.60;;;;;;;20.61;29.85;99459.63;4441767;32;34682;-81
2023/04/21 11:10:49;;;;;;;0.98;0.75;;;;;;;20.32;29.83;99469.19;4436783;32;32724;-81
2023/04/21 11:13:22;;;;;;;0.98;0.90;;;;;;;20.51;29.76;99462.84;4439233;32;33900;-82
2023/04/21 11:16:08;;;;;;;0.55;0.55;;;;;;;21.01;28.49;99451.13;4440823;32;33031;-82
2023/04/21 11:18:40;;;;;;;2.03;0.75;;;;;;;20.71;28.68;99459.06;4448394;32;34474;-82
2023/04/21 11:21:11;;;;;;;0.40;0.40;;;;;;;21.14;27.99;99457.34;4443960;32;33528;-83
2023/04/21 11:23:41;;;;;;;1.20;0.65;;;;;;;21.54;28.49;99456.75;4443369;32;33052;-82
2023/04/21 11:26:10;;;;;;;0.90;0.70;;;;;;;21.77;29.21;99448.25;4442334;32;34753;-82
2023/04/21 11:28:40;;;;;;;0.75;0.50;;;;;;;21.52;28.57;99447.13;4443375;32;34747;-82
2023/04/21 11:31:10;;;;;;;0.60;0.60;;;;;;;21.19;28.87;99454.44;4448294;32;34553;-82
2023/04/21 11:33:40;;;;;;;1.55;1.23;;;;;;;21.42;28.39;99450.44;4443061;32;33213;-83
2023/04/21 11:36:21;;;;;;;1.23;0.98;;;;;;;21.62;28.86;99442.09;4443709;32;33281;-84
2023/04/21 11:38:51;;;;;;;2.20;0.75;;;;;;;22.37;27.30;99439.97;4439852;32;33780;-85
2023/04/21 11:41:21;;;;;;;0.87;0.73;;;;;;;22.17;26.53;99435.94;4443098;32;33578;-84
2023/04/21 11:43:51;;;;;;;1.30;0.68;;;;;;;22.44;26.39;99437.75;4448957;32;32991;-83
2023/04/21 11:46:24;;;;;;;0.60;0.60;;;;;;;22.51;26.68;99441.69;4438398;32;31932;-83
2023/04/21 11:49:00;;;;;;;0.70;0.55;;;;;;;22.69;26.34;99436.09;4442625;32;33805;-83